Brownlee, Nebraska
Current Conditions -  °F | °C
As of 10:15 PM on Saturday 25 Oct 2014 (Local Time) from KTIF Reporting Station
Clear Clear  
Wind Chill: 53°   Ceiling: Unl
Heat Index: 53°   Visibility: 10mi
Dew Point: 42°   Wind: 5mph
Humidity: 66%   Direction: 140°SE
Pressure: 29.99"   Gusts: NA
Location:  41.9263°N, 100.558°W
Report Text: KTIF 260315Z AUTO 14004KT 10SM CLR 12/06 A2999 RMK AO2 T01160055
Loading
Personal Weather Stations






























Interactive Weather Map
Tropical Storm Tracking
New forecast layout! Learn more

10-Day Weather Forecast

Advertisements
Track Severe Weather on mobile